Time;durP1;ratioP1;P1;durP2;ratioP2;P2;SDS_P1;SDS_P2;PMS_P1;PMS_P2;Temp;Humidity;BMP_temperature;BMP_pressure;BME280_temperature;BME280_humidity;BME280_pressure;Samples;Min_cycle;Max_cycle;Signal;HPM_P1;HPM_P2
2023/01/07 00:01:11;;;;;;;1999.90;999.90;;;6.80;99.90;;;;;;5054804;28;20055;-74
2023/01/07 00:03:37;;;;;;;1999.90;999.90;;;6.70;99.90;;;;;;5058520;28;20025;-75
2023/01/07 00:06:05;;;;;;;1999.90;999.90;;;6.70;99.90;;;;;;5055968;28;20079;-75
2023/01/07 00:08:33;;;;;;;1999.90;999.90;;;6.70;99.90;;;;;;5063149;28;20025;-75
2023/01/07 00:11:03;;;;;;;1999.90;999.90;;;6.70;99.90;;;;;;5055728;28;20040;-75
2023/01/07 00:13:29;;;;;;;1999.90;999.90;;;6.70;99.90;;;;;;5060126;28;20123;-75
2023/01/07 00:16:15;;;;;;;1999.90;999.90;;;6.80;99.90;;;;;;5065444;28;20032;-74
2023/01/07 00:18:41;;;;;;;1999.90;999.90;;;6.90;99.90;;;;;;5066187;28;20028;-74
2023/01/07 00:21:09;;;;;;;1999.90;999.90;;;6.90;99.90;;;;;;5063547;28;20016;-74
2023/01/07 00:23:36;;;;;;;1999.90;999.90;;;6.90;99.90;;;;;;5062449;28;20029;-74
2023/01/07 00:26:07;;;;;;;1999.90;999.90;;;6.80;99.90;;;;;;5056971;28;20386;-74
2023/01/07 00:28:35;;;;;;;1999.90;999.90;;;6.60;99.90;;;;;;5065092;28;20038;-75
2023/01/07 00:31:02;;;;;;;1999.90;999.90;;;6.60;99.90;;;;;;5045281;28;20502;-74
2023/01/07 00:33:28;;;;;;;1999.90;999.90;;;6.50;99.90;;;;;;5055933;28;20910;-75
2023/01/07 00:35:59;;;;;;;1999.90;999.90;;;6.60;99.90;;;;;;5045575;28;20139;-74
2023/01/07 00:38:25;;;;;;;1999.90;999.90;;;6.70;99.90;;;;;;5063198;28;20021;-75
2023/01/07 00:40:51;;;;;;;1999.90;999.90;;;6.60;99.90;;;;;;5058294;28;20758;-74
2023/01/07 00:43:16;;;;;;;1999.90;999.90;;;6.80;99.90;;;;;;5057651;28;20039;-75
2023/01/07 00:45:43;;;;;;;1999.90;999.90;;;6.90;99.90;;;;;;5058351;28;20032;-75
2023/01/07 00:48:08;;;;;;;1999.90;999.90;;;6.70;99.90;;;;;;5056338;28;20032;-75
2023/01/07 00:50:36;;;;;;;1999.90;999.90;;;6.70;99.90;;;;;;5058593;28;20394;-74
2023/01/07 00:53:02;;;;;;;1999.90;999.90;;;6.80;99.90;;;;;;5056237;28;20025;-74
2023/01/07 00:55:28;;;;;;;1999.90;999.90;;;6.80;99.90;;;;;;5062829;28;20028;-74
2023/01/07 00:57:53;;;;;;;1999.90;999.90;;;6.70;99.90;;;;;;5055242;28;20108;-75
2023/01/07 01:00:21;;;;;;;1999.90;999.90;;;6.70;99.90;;;;;;5060884;28;20029;-75
2023/01/07 01:02:48;;;;;;;1999.90;999.90;;;6.60;99.90;;;;;;5061711;28;20021;-74
2023/01/07 01:05:14;;;;;;;1999.90;999.90;;;6.70;99.90;;;;;;5060738;28;20021;-74
2023/01/07 01:07:41;;;;;;;1999.90;999.90;;;6.70;99.90;;;;;;5064233;28;20028;-74
2023/01/07 01:10:09;;;;;;;1999.90;999.90;;;6.60;99.90;;;;;;5057088;28;20039;-75
2023/01/07 01:12:35;;;;;;;1999.90;999.90;;;6.80;99.90;;;;;;5062920;28;20766;-75
2023/01/07 01:15:03;;;;;;;1999.90;999.90;;;6.70;99.90;;;;;;5057846;28;20028;-73
2023/01/07 01:17:29;;;;;;;1999.90;999.90;;;6.60;99.90;;;;;;5065309;28;20113;-75
2023/01/07 01:19:54;;;;;;;1999.90;999.90;;;6.60;99.90;;;;;;5031004;28;20518;-75
2023/01/07 01:22:20;;;;;;;1999.90;999.90;;;6.60;99.90;;;;;;5061590;28;20048;-74
2023/01/07 01:24:46;;;;;;;1999.90;999.90;;;6.50;99.90;;;;;;5059921;28;20646;-75
2023/01/07 01:27:11;;;;;;;1999.90;999.90;;;6.40;99.90;;;;;;5056862;28;20032;-75
2023/01/07 01:29:37;;;;;;;1999.90;999.90;;;6.60;99.90;;;;;;5058330;28;20049;-75
2023/01/07 01:32:03;;;;;;;1999.90;999.90;;;6.50;99.90;;;;;;5055569;28;20673;-74
2023/01/07 01:34:28;;;;;;;1999.90;999.90;;;6.50;99.90;;;;;;5056211;28;20043;-75
2023/01/07 01:36:54;;;;;;;1999.90;999.90;;;6.50;99.90;;;;;;5061748;28;20031;-75
2023/01/07 01:39:20;;;;;;;1999.90;999.90;;;6.40;99.90;;;;;;5059707;28;20115;-75
2023/01/07 01:41:46;;;;;;;1999.90;999.90;;;6.40;99.90;;;;;;5052505;28;20059;-74
2023/01/07 01:44:33;;;;;;;1999.90;999.90;;;6.50;99.90;;;;;;5063848;28;20020;-75
2023/01/07 01:47:00;;;;;;;1999.90;999.90;;;6.50;99.90;;;;;;5055841;28;20060;-74
2023/01/07 01:49:30;;;;;;;1999.90;999.90;;;6.60;99.90;;;;;;5053850;28;20028;-74
2023/01/07 01:52:10;;;;;;;1999.90;999.90;;;6.50;99.90;;;;;;5059074;28;20036;-74
2023/01/07 01:54:38;;;;;;;1999.90;999.90;;;6.50;99.90;;;;;;5062371;28;20024;-74
2023/01/07 01:57:07;;;;;;;1999.90;999.90;;;6.50;99.90;;;;;;5059675;28;20094;-74
2023/01/07 01:59:36;;;;;;;1999.90;999.90;;;6.50;99.90;;;;;;5057318;28;20060;-74
2023/01/07 02:02:02;;;;;;;1999.90;999.90;;;6.40;99.90;;;;;;5047455;28;20029;-74
2023/01/07 02:04:29;;;;;;;1999.90;999.90;;;6.40;99.90;;;;;;5055447;28;20058;-74
2023/01/07 02:07:13;;;;;;;1999.90;999.90;;;6.40;99.90;;;;;;5061526;28;20020;-74
2023/01/07 02:09:39;;;;;;;1999.90;999.90;;;6.30;99.90;;;;;;5066126;28;20024;-74
2023/01/07 02:12:29;;;;;;;1999.90;999.90;;;6.30;99.90;;;;;;5064893;28;20033;-74
2023/01/07 02:15:35;;;;;;;1999.90;999.90;;;6.30;99.90;;;;;;5059495;28;20036;-74
2023/01/07 02:18:07;;;;;;;1999.90;999.90;;;6.40;99.90;;;;;;5066888;28;20036;-74
2023/01/07 02:20:56;;;;;;;1999.90;999.90;;;6.50;99.90;;;;;;5066595;28;20036;-74
2023/01/07 02:23:44;;;;;;;1999.90;999.90;;;6.40;99.90;;;;;;5064826;28;20115;-74
2023/01/07 02:26:28;;;;;;;1999.90;999.90;;;6.40;99.90;;;;;;5070530;28;20028;-74
2023/01/07 02:29:18;;;;;;;1999.90;999.90;;;6.40;99.90;;;;;;5058347;28;20044;-74
2023/01/07 02:32:34;;;;;;;1999.90;999.90;;;6.40;99.90;;;;;;5061847;28;20040;-74
2023/01/07 02:35:37;;;;;;;1999.90;999.90;;;6.40;99.90;;;;;;5035770;28;20037;-74
2023/01/07 02:38:28;;;;;;;1999.90;999.90;;;6.40;99.90;;;;;;5068320;28;20028;-74
2023/01/07 02:41:03;;;;;;;1999.90;999.90;;;6.40;99.90;;;;;;5067183;28;20029;-74
2023/01/07 02:43:49;;;;;;;1999.90;999.90;;;6.40;99.90;;;;;;5056318;28;20029;-74
2023/01/07 02:46:53;;;;;;;1999.90;999.90;;;6.40;99.90;;;;;;5065254;28;20112;-75
2023/01/07 02:49:18;;;;;;;1999.90;999.90;;;6.30;99.90;;;;;;5054041;28;20044;-74
2023/01/07 02:51:45;;;;;;;1999.90;999.90;;;6.30;99.90;;;;;;5047541;28;20025;-74
2023/01/07 02:54:31;;;;;;;1999.90;999.90;;;6.30;99.90;;;;;;5056491;28;20100;-75
2023/01/07 02:56:59;;;;;;;1999.90;999.90;;;6.30;99.90;;;;;;5044691;28;20036;-74
2023/01/07 02:59:47;;;;;;;1999.90;999.90;;;6.30;99.90;;;;;;5066111;28;20466;-75
2023/01/07 03:02:38;;;;;;;1999.90;999.90;;;6.40;99.90;;;;;;5056911;28;20090;-74
2023/01/07 03:05:14;;;;;;;1999.90;999.90;;;6.40;99.90;;;;;;5059913;28;20071;-74
2023/01/07 03:08:17;;;;;;;1999.90;999.90;;;6.50;99.90;;;;;;5055321;28;20032;-75
2023/01/07 03:11:06;;;;;;;1999.90;999.90;;;6.40;99.90;;;;;;5059093;28;20382;-75
2023/01/07 03:13:46;;;;;;;1999.90;999.90;;;6.40;99.90;;;;;;5064495;28;20031;-74
2023/01/07 03:16:24;;;;;;;1999.90;999.90;;;6.40;99.90;;;;;;5066738;28;20032;-74
2023/01/07 03:19:02;;;;;;;1999.90;999.90;;;6.40;99.90;;;;;;5054762;28;20032;-74
2023/01/07 03:21:30;;;;;;;1999.90;999.90;;;6.40;99.90;;;;;;5048672;28;20043;-75
2023/01/07 03:23:57;;;;;;;1999.90;999.90;;;6.50;99.90;;;;;;5053143;28;20546;-74
2023/01/07 03:26:30;;;;;;;1999.90;999.90;;;6.40;99.90;;;;;;5061123;28;20033;-74
2023/01/07 03:28:59;;;;;;;1999.90;999.90;;;6.60;99.90;;;;;;5058988;28;20040;-74
2023/01/07 03:31:25;;;;;;;1999.90;999.90;;;6.60;99.90;;;;;;5059378;28;20076;-74
2023/01/07 03:34:12;;;;;;;1999.90;999.90;;;6.50;99.90;;;;;;5056964;28;20033;-74
2023/01/07 03:36:48;;;;;;;1999.90;999.90;;;6.40;99.90;;;;;;5058090;28;20059;-74
2023/01/07 03:39:16;;;;;;;1999.90;999.90;;;6.30;99.90;;;;;;5061615;28;20032;-74
2023/01/07 03:44:26;;;;;;;1999.90;999.90;;;6.30;99.90;;;;;;5063390;28;20039;-74
2023/01/07 03:46:53;;;;;;;1999.90;999.90;;;6.40;99.90;;;;;;5065308;28;20035;-74
2023/01/07 03:49:19;;;;;;;1999.90;999.90;;;6.30;99.90;;;;;;5058034;28;20028;-75
2023/01/07 03:51:45;;;;;;;1999.90;999.90;;;6.30;99.90;;;;;;5061624;28;20040;-75
2023/01/07 03:54:11;;;;;;;1999.90;999.90;;;6.30;99.90;;;;;;5053527;28;20036;-74
2023/01/07 03:56:36;;;;;;;1999.90;999.90;;;6.30;99.90;;;;;;5060072;28;20038;-74
2023/01/07 03:59:02;;;;;;;1999.90;999.90;;;6.30;99.90;;;;;;5066179;28;20192;-75
2023/01/07 04:01:29;;;;;;;1999.90;999.90;;;6.30;99.90;;;;;;5057060;28;20055;-74
2023/01/07 04:03:55;;;;;;;1999.90;999.90;;;6.30;99.90;;;;;;5043266;28;20525;-74
2023/01/07 04:06:20;;;;;;;1999.90;999.90;;;6.30;99.90;;;;;;5066712;28;20064;-74
2023/01/07 04:08:46;;;;;;;1999.90;999.90;;;6.40;99.90;;;;;;5059306;28;20036;-75
2023/01/07 04:11:11;;;;;;;1999.90;999.90;;;6.40;99.90;;;;;;5054977;28;20064;-74
2023/01/07 04:13:37;;;;;;;1999.90;999.90;;;6.30;99.90;;;;;;5058473;28;20040;-74
2023/01/07 04:16:03;;;;;;;1999.90;999.90;;;6.40;99.90;;;;;;5052589;28;20506;-74
2023/01/07 04:18:29;;;;;;;1999.90;999.90;;;6.50;99.90;;;;;;5052782;28;20522;-74
2023/01/07 04:20:54;;;;;;;1999.90;999.90;;;6.40;99.90;;;;;;5059870;28;20020;-74
2023/01/07 04:23:20;;;;;;;1999.90;999.90;;;6.40;99.90;;;;;;5060064;28;20060;-74
2023/01/07 04:25:46;;;;;;;1999.90;999.90;;;6.20;99.90;;;;;;5059965;28;20498;-75
2023/01/07 04:28:12;;;;;;;1999.90;999.90;;;6.40;99.90;;;;;;5056063;28;20085;-75
2023/01/07 04:30:38;;;;;;;1999.90;999.90;;;6.40;99.90;;;;;;5057090;28;20037;-74
2023/01/07 04:33:04;;;;;;;1999.90;999.90;;;6.50;99.90;;;;;;5062639;28;20066;-74
2023/01/07 04:35:31;;;;;;;1999.90;999.90;;;6.60;99.90;;;;;;5053487;28;20025;-75
2023/01/07 04:37:57;;;;;;;1999.90;999.90;;;6.60;99.90;;;;;;5068889;28;20462;-74
2023/01/07 04:40:23;;;;;;;1999.90;999.90;;;6.50;99.90;;;;;;5068991;28;20502;-75
2023/01/07 04:42:48;;;;;;;1999.90;999.90;;;6.60;99.90;;;;;;5057910;28;20055;-74
2023/01/07 04:45:14;;;;;;;1999.90;999.90;;;6.70;99.90;;;;;;5057514;28;20728;-74
2023/01/07 04:47:40;;;;;;;1999.90;999.90;;;6.70;99.90;;;;;;5066935;28;20043;-75
2023/01/07 04:50:06;;;;;;;1999.90;999.90;;;6.50;99.90;;;;;;5053777;28;20111;-75
2023/01/07 04:52:32;;;;;;;1999.90;999.90;;;6.50;99.90;;;;;;5055183;28;20029;-75
2023/01/07 04:54:57;;;;;;;1999.90;999.90;;;6.60;99.90;;;;;;5057473;28;20055;-74
2023/01/07 04:57:23;;;;;;;1999.90;999.90;;;6.70;99.90;;;;;;5059160;28;20506;-74
2023/01/07 04:59:48;;;;;;;1999.90;999.90;;;6.50;99.90;;;;;;5060095;28;20044;-75
2023/01/07 05:02:14;;;;;;;1999.90;999.90;;;6.50;99.90;;;;;;5059173;28;20048;-75
2023/01/07 05:04:39;;;;;;;1999.90;999.90;;;6.50;99.90;;;;;;5055224;28;20067;-74
2023/01/07 05:07:05;;;;;;;1999.90;999.90;;;6.60;99.90;;;;;;5060226;28;20043;-75
2023/01/07 05:09:32;;;;;;;1999.90;999.90;;;6.70;99.90;;;;;;5059930;28;20562;-75
2023/01/07 05:11:58;;;;;;;1999.90;999.90;;;6.60;99.90;;;;;;5053865;28;20115;-75
2023/01/07 05:14:24;;;;;;;1999.90;999.90;;;6.50;99.90;;;;;;5052071;28;20116;-74
2023/01/07 05:16:49;;;;;;;1999.90;999.90;;;6.40;99.90;;;;;;5056697;28;20129;-74
2023/01/07 05:19:15;;;;;;;1999.90;999.90;;;6.30;99.90;;;;;;5059441;28;20036;-74
2023/01/07 05:21:41;;;;;;;1999.90;999.90;;;6.30;99.90;;;;;;5062049;28;20028;-74
2023/01/07 05:24:07;;;;;;;1999.90;999.90;;;6.50;99.90;;;;;;5038315;28;20033;-74
2023/01/07 05:26:33;;;;;;;1999.90;999.90;;;6.50;99.90;;;;;;5056410;28;20029;-75
2023/01/07 05:28:59;;;;;;;1999.90;999.90;;;6.10;99.90;;;;;;5052272;28;20029;-75
2023/01/07 05:31:25;;;;;;;1999.90;999.90;;;6.40;99.90;;;;;;5056693;28;20056;-74
2023/01/07 05:33:50;;;;;;;1999.90;999.90;;;6.60;99.90;;;;;;5062584;28;20033;-74
2023/01/07 05:36:16;;;;;;;1999.90;999.90;;;6.60;99.90;;;;;;5057997;28;20040;-75
2023/01/07 05:38:41;;;;;;;1999.90;999.90;;;6.70;99.90;;;;;;5065248;28;20117;-74
2023/01/07 05:41:07;;;;;;;1999.90;999.90;;;6.50;99.90;;;;;;5058268;28;20479;-74
2023/01/07 05:43:33;;;;;;;1999.90;999.90;;;6.40;99.90;;;;;;5040272;28;20032;-75
2023/01/07 05:45:59;;;;;;;1999.90;999.90;;;6.30;99.90;;;;;;5062659;28;20025;-75
2023/01/07 05:48:25;;;;;;;1999.90;999.90;;;6.50;99.90;;;;;;5067863;28;20032;-75
2023/01/07 05:50:50;;;;;;;1999.90;999.90;;;6.60;99.90;;;;;;5059424;28;20029;-75
2023/01/07 05:53:16;;;;;;;1999.90;999.90;;;6.50;99.90;;;;;;5062037;28;20048;-75
2023/01/07 05:55:41;;;;;;;1999.90;999.90;;;6.70;99.90;;;;;;5066541;28;20025;-75
2023/01/07 05:58:08;;;;;;;1999.90;999.90;;;6.60;99.90;;;;;;5066756;28;20028;-74
2023/01/07 06:00:35;;;;;;;1999.90;999.90;;;6.40;99.90;;;;;;5063451;28;20029;-74
2023/01/07 06:03:02;;;;;;;1999.90;999.90;;;6.40;99.90;;;;;;5055788;28;20397;-74
2023/01/07 06:05:27;;;;;;;1999.90;999.90;;;6.20;99.90;;;;;;5059719;28;20024;-74
2023/01/07 06:07:53;;;;;;;1999.90;999.90;;;6.10;99.90;;;;;;5063734;28;20035;-74
2023/01/07 06:10:19;;;;;;;1999.90;999.90;;;6.00;99.90;;;;;;5062790;28;20043;-77
2023/01/07 06:12:44;;;;;;;1999.90;999.90;;;6.00;99.90;;;;;;5059348;28;20064;-74
2023/01/07 06:15:10;;;;;;;1999.90;999.90;;;6.20;99.90;;;;;;5059910;28;20032;-75
2023/01/07 06:17:36;;;;;;;1999.90;999.90;;;6.10;99.90;;;;;;5059346;28;20092;-74
2023/01/07 06:20:02;;;;;;;1999.90;999.90;;;6.10;99.90;;;;;;5066266;28;20036;-74
2023/01/07 06:22:28;;;;;;;1999.90;999.90;;;6.10;99.90;;;;;;5059609;28;20039;-74
2023/01/07 06:24:53;;;;;;;1999.90;999.90;;;6.20;99.90;;;;;;5056136;28;20029;-74
2023/01/07 06:27:19;;;;;;;1999.90;999.90;;;6.20;99.90;;;;;;5052296;28;20123;-74
2023/01/07 06:29:45;;;;;;;1999.90;999.90;;;6.20;99.90;;;;;;5066360;28;20074;-74
2023/01/07 06:32:10;;;;;;;1999.90;999.90;;;6.20;99.90;;;;;;5055537;28;20041;-74
2023/01/07 06:34:36;;;;;;;1999.90;999.90;;;6.20;99.90;;;;;;5054178;28;20044;-75
2023/01/07 06:37:01;;;;;;;1999.90;999.90;;;6.20;99.90;;;;;;5059309;28;20032;-74
2023/01/07 06:39:27;;;;;;;1999.90;999.90;;;6.20;99.90;;;;;;5059785;28;20440;-74
2023/01/07 06:41:53;;;;;;;1999.90;999.90;;;6.30;99.90;;;;;;5044743;28;20029;-74
2023/01/07 06:44:18;;;;;;;1999.90;999.90;;;6.10;99.90;;;;;;5060875;28;20105;-75
2023/01/07 06:46:44;;;;;;;1999.90;999.90;;;6.00;99.90;;;;;;5042350;28;20064;-74
2023/01/07 06:49:09;;;;;;;1999.90;999.90;;;6.10;99.90;;;;;;5046412;28;20123;-75
2023/01/07 06:51:35;;;;;;;1999.90;999.90;;;5.90;99.90;;;;;;5058497;28;20491;-74
2023/01/07 06:54:01;;;;;;;1999.90;999.90;;;5.80;99.90;;;;;;5057532;28;20033;-75
2023/01/07 06:56:26;;;;;;;1999.90;999.90;;;5.70;99.90;;;;;;5052909;28;20029;-75
2023/01/07 06:58:52;;;;;;;1999.90;999.90;;;5.80;99.90;;;;;;5054545;28;20542;-74
2023/01/07 07:01:18;;;;;;;1999.90;999.90;;;5.90;99.90;;;;;;5061928;28;20523;-74
2023/01/07 07:03:44;;;;;;;1999.90;999.90;;;5.90;99.90;;;;;;5044687;28;20158;-74
2023/01/07 07:06:10;;;;;;;1999.90;999.90;;;6.00;99.90;;;;;;5054670;28;20116;-74
2023/01/07 07:08:35;;;;;;;1999.90;999.90;;;6.00;99.90;;;;;;5062140;28;20130;-74
2023/01/07 07:11:01;;;;;;;1333.95;987.15;;;6.00;99.90;;;;;;5064986;28;20032;-74
2023/01/07 07:13:27;;;;;;;1999.90;999.90;;;5.80;99.90;;;;;;5059090;28;20025;-74
2023/01/07 07:15:52;;;;;;;1999.90;999.90;;;5.90;99.90;;;;;;5060010;28;20032;-74
2023/01/07 07:18:19;;;;;;;1999.90;999.90;;;5.80;99.90;;;;;;5064282;28;20067;-74
2023/01/07 07:20:46;;;;;;;1355.30;999.90;;;5.70;99.90;;;;;;5054805;28;20025;-74
2023/01/07 07:23:11;;;;;;;1999.90;999.90;;;5.60;99.90;;;;;;5061666;28;20563;-74
2023/01/07 07:25:37;;;;;;;1347.35;998.53;;;5.30;99.90;;;;;;5062153;28;20031;-74
2023/01/07 07:28:03;;;;;;;1365.82;999.90;;;5.10;99.90;;;;;;5061975;28;20024;-74
2023/01/07 07:30:29;;;;;;;1342.18;997.95;;;5.00;99.90;;;;;;5055664;28;20084;-74
2023/01/07 07:32:54;;;;;;;1142.75;999.90;;;4.80;99.90;;;;;;5063558;28;20116;-73
2023/01/07 07:35:20;;;;;;;1336.30;998.20;;;4.70;99.90;;;;;;5058759;28;20084;-74
2023/01/07 07:37:46;;;;;;;1999.90;999.90;;;4.60;99.90;;;;;;5038907;28;20041;-74
2023/01/07 07:40:12;;;;;;;1999.90;999.90;;;4.50;99.90;;;;;;5062655;28;20028;-73
2023/01/07 07:42:38;;;;;;;1999.90;999.90;;;4.50;99.90;;;;;;5060313;28;20514;-74
2023/01/07 07:45:06;;;;;;;1999.90;999.90;;;4.40;99.90;;;;;;5061590;28;20103;-73
2023/01/07 07:47:31;;;;;;;1999.90;999.90;;;4.40;99.90;;;;;;5052981;28;20037;-72
2023/01/07 07:49:57;;;;;;;1999.90;999.90;;;4.30;99.90;;;;;;5058229;28;20101;-74
2023/01/07 07:52:23;;;;;;;1999.90;999.90;;;4.20;99.90;;;;;;5054877;28;20068;-73
2023/01/07 07:54:49;;;;;;;1999.90;999.90;;;4.20;99.90;;;;;;5057906;28;20040;-71
2023/01/07 07:57:14;;;;;;;1999.90;999.90;;;4.20;99.90;;;;;;5044632;28;20036;-72
2023/01/07 07:59:40;;;;;;;1999.90;999.90;;;4.10;99.90;;;;;;5055754;28;20033;-72
2023/01/07 08:02:11;;;;;;;1999.90;999.90;;;4.00;99.90;;;;;;5056257;28;20032;-71
2023/01/07 08:04:37;;;;;;;1999.90;999.90;;;4.00;99.90;;;;;;5055127;28;20033;-71
2023/01/07 08:07:02;;;;;;;1999.90;999.90;;;4.10;99.90;;;;;;5056393;28;20055;-71
2023/01/07 08:09:28;;;;;;;1999.90;999.90;;;4.10;99.90;;;;;;5054643;28;20037;-71
2023/01/07 08:11:54;;;;;;;1999.90;999.90;;;4.10;99.90;;;;;;5062032;28;20040;-70
2023/01/07 08:14:19;;;;;;;1999.90;999.90;;;4.10;99.90;;;;;;5058320;28;20037;-71
2023/01/07 08:16:45;;;;;;;1999.90;999.90;;;4.10;99.90;;;;;;5059689;28;20041;-71
2023/01/07 08:19:11;;;;;;;1999.90;999.90;;;4.20;99.90;;;;;;5052890;28;20553;-71
2023/01/07 08:21:37;;;;;;;1999.90;999.90;;;4.20;99.90;;;;;;5063462;28;20032;-71
2023/01/07 08:24:03;;;;;;;1999.90;999.90;;;4.30;99.90;;;;;;5051960;28;20029;-70
2023/01/07 08:26:29;;;;;;;1999.90;999.90;;;4.40;99.90;;;;;;5054884;28;20384;-71
2023/01/07 08:28:54;;;;;;;1999.90;999.90;;;4.40;99.90;;;;;;5061322;28;20029;-71
2023/01/07 08:31:20;;;;;;;1999.90;999.90;;;4.50;99.90;;;;;;5058384;28;20136;-71
2023/01/07 08:33:45;;;;;;;1999.90;999.90;;;4.50;99.90;;;;;;5056101;28;20037;-71
2023/01/07 08:36:11;;;;;;;1999.90;999.90;;;4.60;99.90;;;;;;5036520;28;20043;-70
2023/01/07 08:38:37;;;;;;;1999.90;999.90;;;4.60;99.90;;;;;;5058424;28;20081;-71
2023/01/07 08:41:03;;;;;;;1999.90;999.90;;;4.70;99.90;;;;;;5058299;28;20032;-67
2023/01/07 08:43:29;;;;;;;1999.90;999.90;;;4.70;99.90;;;;;;5057775;28;20033;-71
2023/01/07 08:45:55;;;;;;;1999.90;999.90;;;4.80;99.90;;;;;;5062744;28;20016;-70
2023/01/07 08:48:21;;;;;;;1999.90;999.90;;;4.80;99.90;;;;;;5060565;28;20717;-73
2023/01/07 08:50:52;;;;;;;1999.90;999.90;;;4.90;99.90;;;;;;5051957;28;20028;-74
2023/01/07 08:53:18;;;;;;;;;;;5.00;99.90;;;;;;5057716;28;20572;-73
2023/01/07 08:55:44;;;;;;;1999.90;999.90;;;5.00;99.90;;;;;;5060881;28;19919;-73
2023/01/07 08:58:12;;;;;;;1999.90;999.90;;;5.10;99.90;;;;;;5057858;28;20033;-72
2023/01/07 09:00:38;;;;;;;1999.90;999.90;;;5.20;99.90;;;;;;5058282;28;20059;-72
2023/01/07 09:03:04;;;;;;;1999.90;999.90;;;5.20;99.90;;;;;;5054537;28;20021;-72
2023/01/07 09:05:30;;;;;;;1999.90;999.90;;;5.20;99.90;;;;;;5058877;28;20056;-72
2023/01/07 09:07:56;;;;;;;1999.90;999.90;;;5.20;99.90;;;;;;5062343;28;20518;-74
2023/01/07 09:10:24;;;;;;;1999.90;999.90;;;5.30;99.90;;;;;;5060482;28;20091;-73
2023/01/07 09:12:50;;;;;;;1999.90;999.90;;;5.40;99.90;;;;;;5060444;28;20044;-73
2023/01/07 09:15:16;;;;;;;1999.90;999.90;;;5.60;99.90;;;;;;5056857;28;20614;-73
2023/01/07 09:17:42;;;;;;;1999.90;999.90;;;5.50;99.90;;;;;;5061632;28;20115;-72
2023/01/07 09:20:09;;;;;;;1999.90;999.90;;;5.50;99.90;;;;;;5044462;28;20029;-72
2023/01/07 09:22:35;;;;;;;1999.90;999.90;;;5.50;99.90;;;;;;5053752;28;20097;-73
2023/01/07 09:25:02;;;;;;;1999.90;999.90;;;5.70;99.90;;;;;;5063840;28;20456;-72
2023/01/07 09:27:28;;;;;;;1999.90;999.90;;;5.80;99.90;;;;;;5062001;28;20521;-72
2023/01/07 09:29:57;;;;;;;1999.90;999.90;;;5.90;99.90;;;;;;5060480;28;20057;-74
2023/01/07 09:32:26;;;;;;;1999.90;999.90;;;6.00;99.90;;;;;;5080350;28;20132;-73
2023/01/07 09:34:53;;;;;;;1999.90;999.90;;;6.00;99.90;;;;;;5057773;28;20029;-73
2023/01/07 09:37:19;;;;;;;1999.90;999.90;;;6.00;99.90;;;;;;5063693;28;20119;-74
2023/01/07 09:39:45;;;;;;;1999.90;999.90;;;6.10;99.90;;;;;;5061109;28;20073;-75
2023/01/07 09:42:34;;;;;;;1999.90;999.90;;;6.20;99.90;;;;;;5059757;28;20382;-74
2023/01/07 09:45:20;;;;;;;1367.32;999.90;;;6.20;99.90;;;;;;5060512;28;20028;-73
2023/01/07 09:47:52;;;;;;;1999.90;999.90;;;6.20;99.90;;;;;;5065834;28;20032;-74
2023/01/07 09:50:23;;;;;;;1125.22;999.13;;;6.30;99.90;;;;;;5062357;28;20036;-74
2023/01/07 09:52:52;;;;;;;1359.85;999.90;;;6.40;99.90;;;;;;5067585;28;20029;-74
2023/01/07 09:55:37;;;;;;;1126.18;998.38;;;6.50;99.90;;;;;;5063495;28;20032;-74
2023/01/07 09:58:04;;;;;;;1052.90;970.30;;;6.60;99.90;;;;;;5066982;28;20028;-76
2023/01/07 10:00:33;;;;;;;1089.50;995.17;;;6.60;99.90;;;;;;5060906;28;20032;-75
2023/01/07 10:03:31;;;;;;;1084.38;990.65;;;6.50;99.90;;;;;;5061732;28;20511;-76
2023/01/07 10:06:19;;;;;;;1035.20;959.65;;;6.70;99.90;;;;;;5057875;28;20025;-73
2023/01/07 10:09:12;;;;;;;998.97;927.80;;;6.70;99.90;;;;;;5060859;28;20478;-73
2023/01/07 10:11:54;;;;;;;998.97;926.80;;;6.70;99.90;;;;;;5062413;28;20073;-74
2023/01/07 10:14:26;;;;;;;1025.65;947.78;;;6.70;99.90;;;;;;5058766;28;20213;-75
2023/01/07 10:16:56;;;;;;;1017.33;942.55;;;6.60;99.90;;;;;;5059003;28;20115;-75
2023/01/07 10:19:41;;;;;;;1032.50;953.72;;;6.60;99.90;;;;;;5058379;28;20029;-68
2023/01/07 10:22:18;;;;;;;990.28;919.83;;;6.70;99.90;;;;;;5060048;28;20028;-75
2023/01/07 10:24:51;;;;;;;975.80;906.65;;;6.70;99.90;;;;;;5079211;28;20131;-75
2023/01/07 10:27:28;;;;;;;1008.25;936.25;;;6.60;99.90;;;;;;5056571;28;20037;-75
2023/01/07 10:29:57;;;;;;;1001.75;930.00;;;6.60;99.90;;;;;;5056143;28;20793;-76
2023/01/07 10:32:30;;;;;;;1031.90;955.03;;;6.60;99.90;;;;;;5056375;28;20219;-76
2023/01/07 10:34:58;;;;;;;967.05;896.83;;;6.60;99.90;;;;;;5056498;28;20040;-76
2023/01/07 10:37:31;;;;;;;1033.50;957.13;;;6.70;99.90;;;;;;5060474;28;20028;-75
2023/01/07 10:40:15;;;;;;;1013.15;939.15;;;6.60;99.90;;;;;;5056238;28;20468;-75
2023/01/07 10:43:02;;;;;;;998.80;923.95;;;6.70;99.90;;;;;;5061389;28;20120;-76
2023/01/07 10:45:33;;;;;;;989.15;920.45;;;6.60;99.90;;;;;;5064408;28;20480;-74
2023/01/07 10:48:02;;;;;;;1012.33;937.65;;;6.70;99.90;;;;;;5063502;28;20028;-74
2023/01/07 10:50:46;;;;;;;1020.88;946.50;;;6.80;99.90;;;;;;5065351;28;20471;-75
2023/01/07 10:53:38;;;;;;;999.92;926.53;;;7.00;99.90;;;;;;5065540;28;20041;-65
2023/01/07 10:56:32;;;;;;;985.85;915.95;;;7.20;99.90;;;;;;5057175;28;20020;-77
2023/01/07 10:58:59;;;;;;;925.45;861.15;;;7.40;99.40;;;;;;5069290;28;20529;-73
2023/01/07 11:01:33;;;;;;;972.13;904.40;;;7.70;98.40;;;;;;5059319;28;20032;-76
2023/01/07 11:03:59;;;;;;;882.28;818.42;;;8.00;99.40;;;;;;5064656;28;20031;-76
2023/01/07 11:06:40;;;;;;;705.40;664.95;;;8.00;96.60;;;;;;5064963;28;20071;-76
2023/01/07 11:09:11;;;;;;;693.45;655.10;;;8.10;96.90;;;;;;5060098;28;20037;-76
2023/01/07 11:11:38;;;;;;;783.83;739.85;;;7.90;96.60;;;;;;5063568;28;20094;-75
2023/01/07 11:14:12;;;;;;;758.35;717.10;;;8.20;96.80;;;;;;5065243;28;20604;-76
2023/01/07 11:16:46;;;;;;;612.10;581.80;;;8.30;95.80;;;;;;5059922;28;20017;-73
2023/01/07 11:19:12;;;;;;;595.20;565.60;;;8.00;95.70;;;;;;5068044;28;20044;-74
2023/01/07 11:21:42;;;;;;;697.85;659.03;;;7.80;95.50;;;;;;5062818;28;20039;-73
2023/01/07 11:24:31;;;;;;;596.58;567.13;;;7.70;95.80;;;;;;5060622;28;20024;-74
2023/01/07 11:27:15;;;;;;;632.03;600.57;;;7.50;96.60;;;;;;5069955;28;20056;-74
2023/01/07 11:30:00;;;;;;;491.33;462.30;;;7.40;97.30;;;;;;5065909;28;20047;-73
2023/01/07 11:32:29;;;;;;;721.80;674.40;;;7.30;97.00;;;;;;5053661;28;20518;-74
2023/01/07 11:35:19;;;;;;;729.67;690.33;;;7.30;97.30;;;;;;5062249;28;20036;-74
2023/01/07 11:37:47;;;;;;;770.78;727.67;;;7.20;97.70;;;;;;5059623;28;20085;-73
2023/01/07 11:40:17;;;;;;;719.45;681.25;;;7.00;97.80;;;;;;5063856;28;20040;-74
2023/01/07 11:42:51;;;;;;;840.42;788.50;;;6.90;98.10;;;;;;5057205;28;20100;-73
2023/01/07 11:45:22;;;;;;;806.72;753.80;;;6.90;98.10;;;;;;5058173;28;20059;-73
2023/01/07 11:47:54;;;;;;;706.50;670.00;;;7.00;97.50;;;;;;5061393;28;20032;-73
2023/01/07 11:50:27;;;;;;;612.20;581.85;;;7.20;97.10;;;;;;5058617;28;20033;-73
2023/01/07 11:53:17;;;;;;;710.17;673.03;;;7.20;96.80;;;;;;5063703;28;20072;-74
2023/01/07 11:56:00;;;;;;;596.90;566.38;;;7.30;96.80;;;;;;5063184;28;20517;-73
2023/01/07 11:58:30;;;;;;;641.70;609.75;;;7.40;96.60;;;;;;5063688;28;20085;-73
2023/01/07 12:01:08;;;;;;;653.50;619.83;;;7.50;97.00;;;;;;5058354;28;20093;-74
2023/01/07 12:04:04;;;;;;;737.90;692.78;;;7.50;95.60;;;;;;5060050;28;20856;-73
2023/01/07 12:06:32;;;;;;;690.35;654.28;;;7.10;95.80;;;;;;5056437;28;20052;-73
2023/01/07 12:09:12;;;;;;;652.75;620.58;;;7.20;96.70;;;;;;5061779;28;20387;-73
2023/01/07 12:11:40;;;;;;;659.60;625.88;;;7.20;96.70;;;;;;5058556;28;20028;-73
2023/01/07 12:14:30;;;;;;;724.40;685.63;;;7.10;97.20;;;;;;5052067;28;20094;-73
2023/01/07 12:17:24;;;;;;;726.00;686.97;;;7.30;97.10;;;;;;5047155;28;20123;-73
2023/01/07 12:20:08;;;;;;;709.90;672.47;;;7.40;97.40;;;;;;5058128;28;20064;-73
2023/01/07 12:22:33;;;;;;;740.22;699.13;;;7.60;95.80;;;;;;5059266;28;20103;-73
2023/01/07 12:25:04;;;;;;;569.83;540.50;;;7.70;96.00;;;;;;5052219;28;20032;-74
2023/01/07 12:27:39;;;;;;;741.25;701.78;;;7.60;96.40;;;;;;5058192;28;20032;-71
2023/01/07 12:30:16;;;;;;;663.33;629.03;;;7.70;96.50;;;;;;5058691;28;20051;-69